Time;durP1;ratioP1;P1;durP2;ratioP2;P2;SDS_P1;SDS_P2;PMS_P1;PMS_P2;Temp;Humidity;BMP_temperature;BMP_pressure;BME280_temperature;BME280_humidity;BME280_pressure;Samples;Min_cycle;Max_cycle;Signal;HPM_P1;HPM_P2
2022/06/19 00:00:48;;;;;;;4.05;1.50;;;23.20;55.80;;;;;;5053586;28;20048;-61
2022/06/19 00:03:23;;;;;;;6.00;1.90;;;23.20;55.80;;;;;;5032948;28;20045;-62
2022/06/19 00:05:48;;;;;;;5.38;1.52;;;23.20;55.80;;;;;;5050192;28;20811;-61
2022/06/19 00:08:14;;;;;;;4.32;1.85;;;23.20;55.80;;;;;;5054389;28;20045;-61
2022/06/19 00:10:39;;;;;;;6.18;1.70;;;23.20;55.80;;;;;;5055901;28;20051;-62
2022/06/19 00:13:05;;;;;;;4.38;1.50;;;23.20;55.90;;;;;;5054814;28;20087;-62
2022/06/19 00:15:31;;;;;;;3.75;1.58;;;23.20;55.80;;;;;;5054711;28;20032;-62
2022/06/19 00:17:56;;;;;;;7.47;1.85;;;23.20;55.80;;;;;;5056532;28;20036;-63
2022/06/19 00:20:22;;;;;;;4.50;1.70;;;23.20;55.80;;;;;;5040484;28;20464;-61
2022/06/19 00:22:48;;;;;;;5.30;1.60;;;23.20;55.80;;;;;;5042672;28;20123;-62
2022/06/19 00:25:13;;;;;;;4.32;1.50;;;23.20;55.80;;;;;;5053526;28;20045;-61
2022/06/19 00:27:40;;;;;;;2.97;1.35;;;23.20;55.90;;;;;;5053994;28;20115;-61
2022/06/19 00:30:09;;;;;;;3.95;1.55;;;23.20;55.90;;;;;;5051804;28;20036;-63
2022/06/19 00:32:35;;;;;;;4.82;1.70;;;23.20;55.90;;;;;;5053414;28;20032;-63
2022/06/19 00:35:00;;;;;;;6.50;2.05;;;23.20;55.90;;;;;;5055808;28;20473;-61
2022/06/19 00:37:27;;;;;;;6.40;2.00;;;23.20;55.90;;;;;;5055321;28;20043;-62
2022/06/19 00:39:53;;;;;;;4.15;1.70;;;23.20;55.90;;;;;;5052876;28;20036;-62
2022/06/19 00:42:18;;;;;;;4.07;1.52;;;23.20;55.90;;;;;;5054329;28;20044;-62
2022/06/19 00:44:44;;;;;;;5.28;1.77;;;23.20;55.90;;;;;;5052806;28;20532;-61
2022/06/19 00:47:18;;;;;;;3.45;1.60;;;23.20;55.90;;;;;;5053868;28;20071;-61
2022/06/19 00:49:50;;;;;;;5.07;1.70;;;23.20;55.90;;;;;;5054218;28;20381;-61
2022/06/19 00:52:19;;;;;;;4.90;1.58;;;23.20;55.90;;;;;;5055102;28;20466;-61
2022/06/19 00:54:53;;;;;;;6.05;1.52;;;23.20;55.90;;;;;;5035549;28;20091;-63
2022/06/19 00:57:20;;;;;;;4.40;1.60;;;23.20;55.90;;;;;;5053700;28;20439;-61
2022/06/19 00:59:54;;;;;;;5.57;1.77;;;23.10;55.80;;;;;;5053056;28;20671;-62
2022/06/19 01:02:21;;;;;;;6.00;1.80;;;23.10;55.80;;;;;;5054562;28;20428;-61
2022/06/19 01:04:53;;;;;;;5.45;1.67;;;23.20;55.80;;;;;;5046060;28;20302;-62
2022/06/19 01:07:21;;;;;;;5.25;1.73;;;23.20;55.80;;;;;;5054420;28;20040;-61
2022/06/19 01:09:47;;;;;;;4.63;1.75;;;23.20;55.80;;;;;;5053919;28;20064;-61
2022/06/19 01:12:13;;;;;;;5.53;2.00;;;23.10;55.70;;;;;;5051670;28;20350;-62
2022/06/19 01:14:42;;;;;;;3.17;1.42;;;23.20;55.80;;;;;;5031754;28;20382;-62
2022/06/19 01:17:10;;;;;;;5.78;1.85;;;23.10;55.70;;;;;;5054446;28;20052;-61
2022/06/19 01:19:39;;;;;;;4.93;1.75;;;23.20;55.70;;;;;;5052610;28;20053;-63
2022/06/19 01:22:25;;;;;;;4.28;1.40;;;23.20;56.40;;;;;;5042616;28;20080;-61
2022/06/19 01:25:03;;;;;;;6.30;1.63;;;23.20;55.60;;;;;;5035152;28;20044;-62
2022/06/19 01:30:18;;;;;;;4.95;1.70;;;23.20;55.60;;;;;;5054373;28;20059;-62
2022/06/19 01:32:47;;;;;;;3.22;1.35;;;23.10;55.60;;;;;;5046411;28;20120;-61
2022/06/19 01:35:15;;;;;;;3.80;1.40;;;23.20;55.70;;;;;;5052959;28;20037;-62
2022/06/19 01:37:41;;;;;;;4.85;1.48;;;23.10;55.60;;;;;;5054884;28;20040;-62
2022/06/19 01:40:16;;;;;;;4.88;1.58;;;23.10;55.60;;;;;;5055342;28;20032;-62
2022/06/19 01:42:42;;;;;;;4.70;1.80;;;23.10;55.50;;;;;;5053431;28;20052;-64
2022/06/19 01:45:08;;;;;;;4.72;1.58;;;23.10;55.60;;;;;;5055864;28;20036;-62
2022/06/19 01:47:35;;;;;;;4.30;1.58;;;23.10;55.60;;;;;;5053547;28;20096;-61
2022/06/19 01:50:01;;;;;;;6.68;1.85;;;23.10;55.40;;;;;;5054273;28;20389;-61
2022/06/19 01:52:30;;;;;;;4.38;1.75;;;23.10;55.40;;;;;;5035705;28;20041;-61
2022/06/19 01:55:11;;;;;;;5.03;2.15;;;23.10;55.40;;;;;;5034132;28;20126;-63
2022/06/19 01:57:45;;;;;;;3.92;1.65;;;23.10;55.40;;;;;;5055293;28;20177;-61
2022/06/19 02:00:15;;;;;;;5.43;1.83;;;23.10;55.40;;;;;;5052487;28;20033;-61
2022/06/19 02:02:45;;;;;;;4.07;1.40;;;23.10;55.40;;;;;;5050489;28;20044;-62
2022/06/19 02:05:11;;;;;;;4.03;1.83;;;23.10;55.40;;;;;;5052916;28;20043;-61
2022/06/19 02:07:37;;;;;;;5.22;1.75;;;23.10;55.40;;;;;;5053114;28;20036;-61
2022/06/19 02:10:05;;;;;;;4.38;1.42;;;23.10;55.40;;;;;;5052243;28;20384;-62
2022/06/19 02:12:32;;;;;;;3.75;1.25;;;23.10;55.30;;;;;;5034313;28;20056;-61
2022/06/19 02:15:01;;;;;;;3.90;1.70;;;23.10;55.30;;;;;;5053925;28;20869;-63
2022/06/19 02:17:40;;;;;;;5.45;1.42;;;23.10;55.40;;;;;;5053768;28;20043;-61
2022/06/19 02:20:07;;;;;;;3.95;1.50;;;23.10;55.30;;;;;;5052560;28;20039;-63
2022/06/19 02:22:32;;;;;;;5.57;1.60;;;23.10;55.30;;;;;;5052707;28;20045;-63
2022/06/19 02:24:58;;;;;;;3.67;1.15;;;23.10;55.30;;;;;;5050380;28;20045;-63
2022/06/19 02:27:26;;;;;;;6.07;1.50;;;23.10;55.30;;;;;;5051999;28;20045;-63
2022/06/19 02:29:52;;;;;;;4.43;1.30;;;23.10;55.30;;;;;;5052707;28;20048;-62
2022/06/19 02:32:25;;;;;;;6.28;1.70;;;23.10;55.30;;;;;;5048416;28;20080;-61
2022/06/19 02:34:50;;;;;;;3.40;1.30;;;23.10;55.30;;;;;;5047341;28;20047;-62
2022/06/19 02:37:21;;;;;;;5.22;1.67;;;23.10;55.20;;;;;;5053237;28;20044;-61
2022/06/19 02:39:59;;;;;;;3.00;1.30;;;23.10;55.20;;;;;;5052425;28;20068;-61
2022/06/19 02:42:39;;;;;;;4.90;1.50;;;23.10;55.10;;;;;;5051998;28;20510;-61
2022/06/19 02:45:15;;;;;;;3.47;1.48;;;23.10;55.10;;;;;;5035644;28;20080;-61
2022/06/19 02:47:42;;;;;;;3.15;1.42;;;23.10;55.10;;;;;;5050769;28;20035;-61
2022/06/19 02:50:12;;;;;;;4.43;1.45;;;23.10;55.10;;;;;;5051071;28;20059;-62
2022/06/19 02:52:37;;;;;;;4.90;1.63;;;23.10;55.00;;;;;;5052069;28;20044;-61
2022/06/19 02:55:04;;;;;;;2.75;1.13;;;23.10;55.70;;;;;;5050501;28;20043;-62
2022/06/19 02:57:30;;;;;;;3.45;1.30;;;23.10;55.00;;;;;;5033617;28;20032;-62
2022/06/19 02:59:56;;;;;;;3.78;1.50;;;23.10;54.90;;;;;;5051180;28;20048;-62
2022/06/19 03:02:21;;;;;;;3.75;1.35;;;23.10;54.90;;;;;;5051556;28;20048;-62
2022/06/19 03:04:49;;;;;;;3.28;1.20;;;23.10;54.80;;;;;;5049528;28;20044;-62
2022/06/19 03:07:15;;;;;;;3.00;1.00;;;23.10;54.80;;;;;;5054562;28;20064;-62
2022/06/19 03:09:41;;;;;;;6.13;1.40;;;23.10;54.80;;;;;;5052414;28;20130;-63
2022/06/19 03:12:08;;;;;;;3.33;1.25;;;23.10;54.80;;;;;;5050151;28;20366;-63
2022/06/19 03:14:33;;;;;;;4.65;1.40;;;23.10;54.90;;;;;;5049944;28;20041;-61
2022/06/19 03:16:59;;;;;;;3.45;1.55;;;23.10;54.90;;;;;;5051211;28;20036;-62
2022/06/19 03:19:25;;;;;;;2.55;1.20;;;23.10;54.90;;;;;;5034915;28;20044;-61
2022/06/19 03:21:50;;;;;;;2.40;1.15;;;23.10;54.90;;;;;;5052080;28;20413;-63
2022/06/19 03:24:16;;;;;;;3.65;1.10;;;23.10;54.90;;;;;;5050842;28;20159;-62
2022/06/19 03:26:42;;;;;;;3.13;1.35;;;23.10;55.00;;;;;;5051508;28;20142;-62
2022/06/19 03:29:08;;;;;;;4.20;1.30;;;23.10;54.90;;;;;;5050990;28;20063;-62
2022/06/19 03:31:34;;;;;;;2.85;1.20;;;23.10;54.90;;;;;;5051245;28;20163;-60
2022/06/19 03:34:00;;;;;;;3.38;1.25;;;23.00;54.80;;;;;;5050924;28;20685;-61
2022/06/19 03:36:26;;;;;;;3.83;1.40;;;23.10;54.80;;;;;;5041444;28;20132;-62
2022/06/19 03:38:52;;;;;;;3.97;1.40;;;23.10;54.80;;;;;;5053178;28;20572;-61
2022/06/19 03:41:18;;;;;;;3.08;1.10;;;23.00;54.70;;;;;;5050515;28;20084;-62
2022/06/19 03:43:43;;;;;;;4.22;1.45;;;23.10;54.70;;;;;;5051557;28;20456;-62
2022/06/19 03:46:18;;;;;;;2.83;1.10;;;23.00;54.70;;;;;;5051955;28;20035;-62
2022/06/19 03:48:47;;;;;;;3.17;1.15;;;23.00;54.70;;;;;;5052039;28;20041;-62
2022/06/19 03:51:15;;;;;;;4.28;1.17;;;23.00;54.80;;;;;;5034603;28;20128;-62
2022/06/19 03:53:42;;;;;;;4.53;1.50;;;23.10;54.90;;;;;;5051757;28;20043;-61
2022/06/19 03:56:09;;;;;;;3.28;1.17;;;23.10;54.80;;;;;;5050766;28;20446;-63
2022/06/19 03:58:47;;;;;;;3.70;1.23;;;23.00;54.80;;;;;;5053167;28;20037;-61
2022/06/19 04:01:14;;;;;;;3.85;1.30;;;23.00;54.70;;;;;;5053302;28;20783;-61
2022/06/19 04:03:41;;;;;;;4.53;1.50;;;23.00;54.70;;;;;;5037731;28;20127;-62
2022/06/19 04:06:09;;;;;;;2.83;1.15;;;23.00;54.80;;;;;;5033912;28;20040;-62
2022/06/19 04:08:35;;;;;;;3.35;1.00;;;23.00;54.80;;;;;;5050911;28;20033;-61
2022/06/19 04:11:00;;;;;;;4.13;1.40;;;23.10;54.70;;;;;;5062919;28;20119;-62
2022/06/19 04:13:26;;;;;;;3.80;1.17;;;23.00;54.60;;;;;;5050729;28;20041;-63
2022/06/19 04:15:51;;;;;;;4.13;1.77;;;23.00;54.60;;;;;;5053754;28;20481;-62
2022/06/19 04:18:17;;;;;;;4.50;1.50;;;23.00;54.60;;;;;;5052966;28;20043;-61
2022/06/19 04:20:43;;;;;;;3.80;1.02;;;23.00;54.60;;;;;;5050316;28;20032;-62
2022/06/19 04:23:09;;;;;;;3.85;1.30;;;23.00;54.60;;;;;;5044538;28;20053;-62
2022/06/19 04:25:35;;;;;;;4.88;1.20;;;23.00;54.60;;;;;;5048779;28;20049;-62
2022/06/19 04:28:00;;;;;;;3.40;1.13;;;23.00;54.60;;;;;;5049780;28;20049;-61
2022/06/19 04:30:26;;;;;;;3.25;1.23;;;23.00;54.60;;;;;;5049212;28;20836;-63
2022/06/19 04:32:52;;;;;;;3.70;1.02;;;23.00;54.60;;;;;;5047901;28;20974;-61
2022/06/19 04:35:18;;;;;;;4.57;1.48;;;23.00;54.60;;;;;;5054882;28;20128;-61
2022/06/19 04:37:43;;;;;;;4.50;1.33;;;23.00;54.70;;;;;;5049944;28;20032;-62
2022/06/19 04:40:11;;;;;;;2.85;1.20;;;23.00;54.70;;;;;;5048461;28;20131;-62
2022/06/19 04:42:37;;;;;;;2.97;1.05;;;23.00;54.70;;;;;;5050243;28;20119;-63
2022/06/19 04:45:03;;;;;;;2.88;1.15;;;23.00;54.80;;;;;;5051716;28;20063;-61
2022/06/19 04:47:29;;;;;;;2.88;1.23;;;23.00;54.80;;;;;;5051077;28;20068;-61
2022/06/19 04:49:54;;;;;;;3.50;1.45;;;23.00;54.80;;;;;;5033347;28;20041;-62
2022/06/19 04:52:20;;;;;;;2.88;1.30;;;23.00;54.80;;;;;;5050321;28;20045;-63
2022/06/19 04:54:46;;;;;;;3.65;1.42;;;23.00;54.80;;;;;;5053145;28;20132;-62
2022/06/19 04:57:12;;;;;;;3.17;1.10;;;23.00;54.70;;;;;;5033836;28;20044;-63
2022/06/19 04:59:38;;;;;;;3.25;1.10;;;23.00;54.80;;;;;;5054399;28;20044;-61
2022/06/19 05:02:04;;;;;;;3.25;1.52;;;23.00;54.70;;;;;;5052772;28;20261;-61
2022/06/19 05:04:29;;;;;;;2.50;1.00;;;23.00;54.70;;;;;;5055396;28;22598;-61
2022/06/19 05:06:55;;;;;;;3.40;1.48;;;23.00;54.70;;;;;;5059542;28;20563;-61
2022/06/19 05:09:20;;;;;;;5.35;1.67;;;23.00;54.60;;;;;;5053999;28;20107;-62
2022/06/19 05:11:46;;;;;;;4.10;1.27;;;23.00;54.70;;;;;;5053466;28;20110;-61
2022/06/19 05:14:13;;;;;;;3.67;1.38;;;23.00;54.60;;;;;;5052723;28;20032;-61
2022/06/19 05:16:39;;;;;;;3.95;1.20;;;23.00;54.60;;;;;;5055166;28;20155;-62
2022/06/19 05:19:05;;;;;;;3.35;1.30;;;23.00;54.50;;;;;;5055623;28;20029;-61
2022/06/19 05:21:31;;;;;;;3.67;1.00;;;23.00;54.50;;;;;;5043006;28;20039;-62
2022/06/19 05:23:57;;;;;;;2.90;1.25;;;23.00;54.40;;;;;;5053319;28;20041;-61
2022/06/19 05:26:26;;;;;;;3.85;1.15;;;23.00;54.30;;;;;;5054494;28;20640;-61
2022/06/19 05:28:54;;;;;;;3.88;1.10;;;23.00;54.30;;;;;;5055547;28;20412;-62
2022/06/19 05:31:20;;;;;;;5.13;1.15;;;23.00;54.20;;;;;;5054511;28;20041;-63
2022/06/19 05:33:46;;;;;;;4.15;1.40;;;23.00;54.10;;;;;;5054802;28;20135;-61
2022/06/19 05:36:12;;;;;;;2.70;1.17;;;23.00;54.00;;;;;;5037418;28;20037;-62
2022/06/19 05:38:37;;;;;;;2.85;1.00;;;23.00;54.00;;;;;;5054801;28;20040;-62
2022/06/19 05:41:04;;;;;;;2.08;1.08;;;23.00;54.00;;;;;;5050775;28;20178;-61
2022/06/19 05:43:31;;;;;;;2.83;0.98;;;23.00;54.00;;;;;;5035024;28;20090;-62
2022/06/19 05:45:59;;;;;;;4.32;1.10;;;23.00;54.00;;;;;;5054742;28;20498;-61
2022/06/19 05:48:26;;;;;;;5.45;1.15;;;23.00;53.90;;;;;;5053537;28;20040;-63
2022/06/19 05:51:07;;;;;;;3.38;0.93;;;23.00;53.90;;;;;;5052967;28;20032;-61
2022/06/19 05:53:37;;;;;;;3.00;1.00;;;23.00;53.80;;;;;;5051191;28;20135;-62
2022/06/19 05:56:03;;;;;;;3.55;0.80;;;23.00;53.80;;;;;;5052715;28;20095;-62
2022/06/19 05:58:29;;;;;;;2.58;1.02;;;23.00;53.90;;;;;;5053108;28;20024;-62
2022/06/19 06:00:55;;;;;;;3.63;1.30;;;23.00;53.80;;;;;;5032647;28;20036;-62
2022/06/19 06:03:22;;;;;;;3.22;1.17;;;23.00;53.70;;;;;;5052315;28;20042;-62
2022/06/19 06:05:48;;;;;;;3.85;1.25;;;23.00;53.80;;;;;;5054614;28;20036;-62
2022/06/19 06:08:15;;;;;;;3.03;1.05;;;23.00;53.80;;;;;;5052462;28;20045;-63
2022/06/19 06:10:41;;;;;;;3.28;1.20;;;22.90;53.70;;;;;;5051979;28;20036;-61
2022/06/19 06:13:07;;;;;;;3.10;0.90;;;23.00;54.50;;;;;;5053741;28;20447;-61
2022/06/19 06:15:33;;;;;;;2.78;1.00;;;23.00;53.80;;;;;;5053849;28;20040;-61
2022/06/19 06:18:00;;;;;;;4.00;1.13;;;23.00;53.90;;;;;;5053077;28;20033;-61
2022/06/19 06:20:26;;;;;;;3.42;1.15;;;22.90;53.70;;;;;;5053149;28;20400;-62
2022/06/19 06:22:52;;;;;;;2.28;1.00;;;23.00;53.80;;;;;;5051229;28;20048;-62
2022/06/19 06:25:18;;;;;;;3.00;1.05;;;23.00;53.90;;;;;;5054968;28;20052;-60
2022/06/19 06:27:43;;;;;;;3.95;1.08;;;22.90;53.70;;;;;;5051889;28;20467;-62
2022/06/19 06:30:11;;;;;;;3.88;1.27;;;22.90;53.80;;;;;;5053186;28;20067;-62
2022/06/19 06:32:37;;;;;;;6.25;1.10;;;22.90;53.80;;;;;;5046118;28;20090;-63
2022/06/19 06:35:02;;;;;;;6.07;1.13;;;22.90;53.90;;;;;;5053117;28;20037;-62
2022/06/19 06:37:28;;;;;;;5.00;1.17;;;22.90;53.80;;;;;;5052266;28;20033;-62
2022/06/19 06:39:54;;;;;;;5.03;1.30;;;22.90;54.00;;;;;;5053882;28;20123;-61
2022/06/19 06:42:19;;;;;;;6.30;1.40;;;22.90;53.90;;;;;;5036046;28;20473;-61
2022/06/19 06:44:45;;;;;;;4.85;1.25;;;22.90;53.90;;;;;;5054599;28;20099;-62
2022/06/19 06:47:10;;;;;;;4.75;1.30;;;22.90;54.40;;;;;;5052860;28;20076;-64
2022/06/19 06:49:36;;;;;;;7.32;1.77;;;23.00;53.70;;;;;;5051892;28;20081;-63
2022/06/19 06:52:02;;;;;;;4.70;1.38;;;23.00;53.70;;;;;;5051677;28;20045;-62
2022/06/19 06:54:28;;;;;;;5.25;1.55;;;22.90;53.40;;;;;;5050396;28;20032;-62
2022/06/19 06:56:55;;;;;;;6.40;1.73;;;22.90;53.20;;;;;;5052375;28;20029;-62
2022/06/19 06:59:20;;;;;;;4.47;1.58;;;23.00;53.10;;;;;;5052496;28;20051;-62
2022/06/19 07:01:46;;;;;;;4.35;1.65;;;22.90;52.90;;;;;;5053558;28;20534;-62
2022/06/19 07:04:12;;;;;;;4.63;1.40;;;22.90;52.90;;;;;;5053602;28;20040;-63
2022/06/19 07:06:37;;;;;;;11.52;1.75;;;22.90;52.60;;;;;;5052256;28;20036;-61
2022/06/19 07:09:04;;;;;;;5.82;1.48;;;22.90;52.50;;;;;;5052822;28;20476;-62
2022/06/19 07:11:40;;;;;;;5.75;1.73;;;22.90;52.30;;;;;;5054207;28;20036;-61
2022/06/19 07:14:06;;;;;;;3.65;1.50;;;22.90;51.80;;;;;;5031765;28;20043;-60
2022/06/19 07:16:32;;;;;;;5.82;1.33;;;22.90;51.30;;;;;;5052790;28;20134;-62
2022/06/19 07:18:58;;;;;;;4.93;1.48;;;22.90;50.90;;;;;;5049586;28;20039;-62
2022/06/19 07:21:24;;;;;;;4.55;1.40;;;22.90;50.10;;;;;;5050247;28;20041;-62
2022/06/19 07:23:49;;;;;;;4.90;1.30;;;22.90;49.80;;;;;;5053564;28;20044;-64
2022/06/19 07:26:18;;;;;;;5.32;1.60;;;22.90;49.80;;;;;;5052634;28;20048;-61
2022/06/19 07:28:43;;;;;;;4.32;1.58;;;22.90;49.40;;;;;;5053901;28;20063;-62
2022/06/19 07:31:10;;;;;;;3.88;1.40;;;22.90;49.50;;;;;;5052404;28;20524;-61
2022/06/19 07:33:36;;;;;;;6.78;1.58;;;22.90;49.10;;;;;;5033715;28;20559;-61
2022/06/19 07:36:03;;;;;;;5.03;1.50;;;22.80;49.20;;;;;;5032783;28;20033;-62
2022/06/19 07:38:29;;;;;;;5.68;1.52;;;22.80;49.00;;;;;;5034286;28;20106;-61
2022/06/19 07:40:55;;;;;;;5.82;1.80;;;22.80;48.80;;;;;;5051272;28;20036;-61
2022/06/19 07:43:20;;;;;;;5.57;1.55;;;22.80;48.80;;;;;;5053674;28;20132;-61
2022/06/19 07:45:46;;;;;;;7.18;1.60;;;22.80;48.70;;;;;;5049820;28;20693;-62
2022/06/19 07:50:56;;;;;;;10.30;1.80;;;22.80;48.60;;;;;;5051468;28;20041;-61
2022/06/19 07:53:22;;;;;;;4.32;1.73;;;22.70;48.60;;;;;;5051693;28;20102;-63
2022/06/19 07:55:48;;;;;;;5.57;1.40;;;22.80;48.50;;;;;;5048980;28;20028;-63
2022/06/19 07:58:13;;;;;;;7.90;1.92;;;22.70;48.30;;;;;;5052271;28;20129;-62
2022/06/19 08:00:39;;;;;;;8.15;1.90;;;22.70;48.60;;;;;;5050134;28;20033;-63
2022/06/19 08:03:05;;;;;;;6.15;1.80;;;22.70;48.80;;;;;;5033437;28;20048;-62
2022/06/19 08:05:33;;;;;;;7.60;1.77;;;22.70;48.60;;;;;;5052010;28;20837;-65
2022/06/19 08:08:00;;;;;;;4.28;1.17;;;22.70;48.50;;;;;;5050002;28;20461;-62
2022/06/19 08:10:29;;;;;;;5.63;1.92;;;22.60;48.70;;;;;;5033310;28;20554;-63
2022/06/19 08:12:55;;;;;;;6.20;1.58;;;22.60;48.50;;;;;;5048928;28;20056;-61
2022/06/19 08:15:22;;;;;;;8.98;2.15;;;22.60;48.60;;;;;;5051026;28;20431;-63
2022/06/19 08:17:48;;;;;;;6.40;1.95;;;22.60;48.50;;;;;;5051437;28;20036;-62
2022/06/19 08:20:16;;;;;;;8.27;2.28;;;22.60;48.60;;;;;;5047682;28;20491;-61
2022/06/19 08:22:42;;;;;;;7.60;1.98;;;22.60;49.00;;;;;;5048057;28;20037;-62
2022/06/19 08:25:10;;;;;;;4.82;1.73;;;22.60;49.10;;;;;;5052123;28;20060;-61
2022/06/19 08:27:40;;;;;;;6.82;1.95;;;22.60;49.20;;;;;;5050090;28;20071;-62
2022/06/19 08:30:08;;;;;;;6.93;1.77;;;22.60;49.40;;;;;;5037984;28;20540;-61
2022/06/19 08:32:33;;;;;;;7.43;1.85;;;22.50;49.50;;;;;;5056972;28;20033;-62
2022/06/19 08:34:59;;;;;;;8.43;2.10;;;22.50;49.40;;;;;;5054828;28;20033;-61
2022/06/19 08:37:25;;;;;;;8.30;1.85;;;22.50;49.60;;;;;;5054283;28;20120;-64
2022/06/19 08:39:50;;;;;;;4.38;1.77;;;22.50;49.90;;;;;;5055648;28;20747;-62
2022/06/19 08:42:38;;;;;;;7.30;1.77;;;22.50;50.10;;;;;;5018553;28;20793;-62
2022/06/19 08:45:27;;;;;;;8.30;2.13;;;22.50;50.00;;;;;;5054272;28;20033;-62
2022/06/19 08:48:03;;;;;;;6.18;1.50;;;22.60;50.20;;;;;;5054132;28;20040;-61
2022/06/19 08:50:38;;;;;;;4.32;1.58;;;22.60;50.50;;;;;;5055442;28;20033;-60
2022/06/19 08:53:15;;;;;;;5.63;1.88;;;22.60;50.80;;;;;;5054672;28;20041;-61
2022/06/19 08:55:53;;;;;;;9.57;2.42;;;22.60;50.90;;;;;;5055365;28;20068;-61
2022/06/19 08:58:24;;;;;;;8.85;2.20;;;22.60;50.90;;;;;;5056811;28;20400;-62
2022/06/19 09:01:15;;;;;;;12.57;2.50;;;22.70;50.70;;;;;;5053424;28;20048;-62
2022/06/19 09:07:06;;;;;;;6.38;2.17;;;22.60;49.90;;;;;;5047770;28;21157;-63
2022/06/19 09:09:38;;;;;;;6.47;2.30;;;22.60;50.00;;;;;;5054501;28;20055;-62
2022/06/19 09:12:23;;;;;;;6.80;1.88;;;22.60;50.10;;;;;;5054376;28;20055;-62
2022/06/19 09:14:55;;;;;;;8.55;2.03;;;22.50;49.90;;;;;;5055570;28;20033;-63
2022/06/19 09:17:57;;;;;;;8.48;2.15;;;22.50;50.00;;;;;;5054256;28;20557;-62
2022/06/19 09:20:35;;;;;;;7.45;2.00;;;22.50;50.20;;;;;;5025630;28;20123;-61
2022/06/19 09:23:07;;;;;;;7.00;2.20;;;22.50;50.60;;;;;;5055384;28;20107;-62
2022/06/19 09:26:13;;;;;;;8.07;2.15;;;22.40;50.70;;;;;;5054146;28;20060;-61
2022/06/19 09:28:51;;;;;;;7.47;2.13;;;22.50;51.20;;;;;;5037775;28;20045;-61
2022/06/19 09:31:35;;;;;;;5.80;2.05;;;22.40;51.10;;;;;;5053666;28;20037;-62
2022/06/19 09:34:22;;;;;;;8.23;2.45;;;22.50;51.40;;;;;;5047919;28;20202;-61
2022/06/19 09:37:05;;;;;;;14.48;3.42;;;22.50;51.80;;;;;;5053912;28;20040;-63
2022/06/19 09:39:46;;;;;;;11.95;3.35;;;22.50;51.70;;;;;;5052417;28;20123;-61
2022/06/19 09:42:18;;;;;;;14.43;4.43;;;22.50;52.00;;;;;;5053501;28;20052;-60
2022/06/19 09:44:53;;;;;;;12.18;3.33;;;22.60;52.30;;;;;;5052689;28;20036;-60
2022/06/19 09:47:24;;;;;;;15.45;3.85;;;22.60;53.10;;;;;;5047317;28;20041;-60
2022/06/19 09:50:04;;;;;;;10.55;3.22;;;22.60;52.40;;;;;;5052659;28;20539;-62
2022/06/19 09:52:37;;;;;;;13.68;3.30;;;22.60;52.50;;;;;;5036015;28;20493;-64
2022/06/19 09:55:18;;;;;;;14.55;3.28;;;22.60;52.40;;;;;;5049935;28;20053;-64
2022/06/19 09:57:54;;;;;;;11.02;3.40;;;22.60;52.60;;;;;;5025413;28;20069;-63
2022/06/19 10:00:24;;;;;;;12.27;3.42;;;22.60;52.40;;;;;;5025924;28;20109;-62
2022/06/19 10:02:58;;;;;;;12.30;3.38;;;22.60;52.30;;;;;;5019499;28;20040;-64
2022/06/19 10:05:24;;;;;;;11.18;3.50;;;22.60;52.30;;;;;;5048028;28;20045;-62
2022/06/19 10:07:55;;;;;;;10.65;2.90;;;22.60;52.40;;;;;;5038134;28;20484;-62
2022/06/19 10:10:40;;;;;;;11.95;3.55;;;22.60;52.50;;;;;;5053912;28;20068;-60
2022/06/19 10:13:16;;;;;;;10.57;3.30;;;22.70;52.70;;;;;;5056962;28;20086;-63
2022/06/19 10:15:44;;;;;;;10.40;2.88;;;22.60;52.80;;;;;;5040624;28;20040;-61
2022/06/19 10:18:20;;;;;;;8.80;2.72;;;22.60;52.80;;;;;;5037064;28;20408;-61
2022/06/19 10:21:01;;;;;;;8.55;3.28;;;22.60;52.90;;;;;;5032238;28;20048;-61
2022/06/19 10:23:42;;;;;;;8.32;2.55;;;22.70;53.00;;;;;;5034672;28;20052;-61
2022/06/19 10:26:16;;;;;;;9.40;2.55;;;22.60;53.00;;;;;;5036404;28;20060;-63
2022/06/19 10:28:47;;;;;;;9.75;3.05;;;22.60;53.30;;;;;;5048533;28;20045;-62
2022/06/19 10:31:23;;;;;;;7.80;2.78;;;22.60;53.40;;;;;;5051992;28;20621;-62
2022/06/19 10:34:02;;;;;;;8.65;2.97;;;22.60;53.20;;;;;;5053076;28;20047;-61
2022/06/19 10:36:55;;;;;;;7.97;3.05;;;22.60;53.10;;;;;;5054077;28;20052;-63
2022/06/19 10:39:38;;;;;;;10.23;2.60;;;22.70;53.20;;;;;;5055438;28;20041;-63
2022/06/19 10:42:14;;;;;;;9.68;2.47;;;22.70;53.30;;;;;;5056948;28;20174;-64
2022/06/19 10:44:56;;;;;;;7.45;2.42;;;22.60;53.90;;;;;;5055588;28;20047;-63
2022/06/19 10:47:54;;;;;;;9.20;2.35;;;22.70;53.50;;;;;;5055838;28;20136;-63
2022/06/19 10:50:52;;;;;;;6.35;2.15;;;22.70;53.50;;;;;;5056396;28;20049;-62
2022/06/19 10:53:39;;;;;;;6.28;1.98;;;22.70;53.60;;;;;;5046948;28;20090;-63
2022/06/19 10:56:05;;;;;;;5.65;2.00;;;22.70;53.70;;;;;;5054248;28;20170;-62
2022/06/19 10:58:31;;;;;;;9.85;2.25;;;22.70;53.80;;;;;;5055701;28;20119;-63
2022/06/19 11:01:03;;;;;;;9.32;2.60;;;22.70;53.70;;;;;;5053779;28;20378;-63
2022/06/19 11:06:21;;;;;;;6.15;1.50;;;22.70;53.90;;;;;;5054263;28;20052;-65
2022/06/19 11:08:55;;;;;;;6.57;1.88;;;22.70;53.80;;;;;;5050455;28;20079;-63
2022/06/19 11:11:23;;;;;;;7.43;2.30;;;22.70;53.80;;;;;;5053496;28;20068;-65
2022/06/19 11:14:07;;;;;;;7.55;1.95;;;22.70;53.70;;;;;;5051250;28;20136;-64
2022/06/19 11:16:50;;;;;;;9.77;2.42;;;22.70;53.70;;;;;;5052643;28;20044;-63
2022/06/19 11:19:39;;;;;;;6.38;2.10;;;22.70;53.80;;;;;;5053213;28;20063;-63
2022/06/19 11:22:19;;;;;;;5.78;1.90;;;22.70;53.90;;;;;;5054610;28;20045;-62
2022/06/19 11:24:45;;;;;;;7.55;1.98;;;22.70;54.00;;;;;;5053501;28;20045;-63
2022/06/19 11:27:22;;;;;;;8.30;2.17;;;22.70;53.90;;;;;;5055016;28;20071;-64
2022/06/19 11:29:50;;;;;;;10.60;2.58;;;22.70;54.10;;;;;;5054179;28;20060;-64
2022/06/19 11:32:19;;;;;;;7.78;1.88;;;22.70;53.90;;;;;;5053883;28;20123;-63
2022/06/19 11:35:07;;;;;;;6.93;2.17;;;22.70;54.00;;;;;;5043371;28;20822;-63
2022/06/19 11:37:37;;;;;;;4.88;1.77;;;22.70;53.90;;;;;;5034440;28;20036;-64
2022/06/19 11:40:05;;;;;;;5.47;2.17;;;22.60;53.90;;;;;;5034650;28;20485;-63
2022/06/19 11:42:35;;;;;;;10.80;2.10;;;22.70;53.90;;;;;;5054195;28;20075;-63
2022/06/19 11:45:31;;;;;;;4.22;1.35;;;22.70;53.90;;;;;;5051667;28;20520;-63
2022/06/19 11:47:56;;;;;;;7.03;1.75;;;22.70;53.80;;;;;;5053952;28;20037;-63
2022/06/19 11:50:44;;;;;;;6.28;1.73;;;22.70;53.80;;;;;;5054249;28;20163;-63
2022/06/19 11:53:23;;;;;;;6.82;1.98;;;22.60;53.80;;;;;;5053586;28;20060;-63
2022/06/19 11:55:52;;;;;;;7.57;1.80;;;22.70;53.90;;;;;;5052624;28;20052;-64
2022/06/19 11:58:33;;;;;;;7.40;1.38;;;22.60;53.80;;;;;;5055923;28;20402;-63
2022/06/19 12:01:02;;;;;;;4.43;1.42;;;22.70;53.90;;;;;;5052867;28;20048;-63
2022/06/19 12:03:39;;;;;;;5.28;1.50;;;22.60;53.80;;;;;;5038548;28;20055;-63
2022/06/19 12:06:08;;;;;;;5.28;1.60;;;22.60;53.80;;;;;;5042137;28;20488;-63
2022/06/19 12:08:53;;;;;;;4.93;1.50;;;22.70;53.90;;;;;;5057498;28;20525;-63
2022/06/19 12:11:33;;;;;;;5.80;1.75;;;22.60;53.80;;;;;;5058533;28;20083;-62
2022/06/19 12:13:59;;;;;;;3.70;1.27;;;22.60;53.80;;;;;;5057478;28;20182;-63
2022/06/19 12:16:25;;;;;;;4.15;1.48;;;22.60;53.80;;;;;;5056571;28;20123;-64
2022/06/19 12:18:51;;;;;;;4.35;1.70;;;22.60;53.90;;;;;;5058702;28;20045;-62
2022/06/19 12:21:29;;;;;;;5.07;1.70;;;22.60;54.00;;;;;;5060228;28;20032;-62
2022/06/19 12:24:07;;;;;;;2.10;0.98;;;22.60;54.20;;;;;;5055302;28;20048;-63
2022/06/19 12:26:48;;;;;;;4.28;1.50;;;22.70;54.00;;;;;;5038397;28;20056;-64
2022/06/19 12:29:17;;;;;;;17.27;1.60;;;22.70;54.20;;;;;;5053309;28;20037;-62
2022/06/19 12:31:42;;;;;;;10.60;1.55;;;22.70;54.10;;;;;;5057305;28;20048;-63
2022/06/19 12:34:30;;;;;;;4.38;1.38;;;22.70;53.90;;;;;;5057872;28;20063;-64
2022/06/19 12:36:59;;;;;;;8.73;1.63;;;22.70;53.40;;;;;;5040040;28;20127;-62
2022/06/19 12:39:29;;;;;;;8.15;1.50;;;22.70;53.00;;;;;;5058383;28;20068;-62
2022/06/19 12:42:30;;;;;;;3.45;1.50;;;22.60;53.00;;;;;;5057119;28;20036;-63
2022/06/19 12:45:03;;;;;;;4.43;1.33;;;22.70;52.60;;;;;;5056202;28;20041;-64
2022/06/19 12:47:47;;;;;;;8.32;1.55;;;22.60;52.30;;;;;;5056096;28;20045;-63
2022/06/19 12:50:28;;;;;;;2.70;1.08;;;22.60;52.00;;;;;;5055749;28;20444;-62
2022/06/19 12:53:01;;;;;;;5.93;1.35;;;22.60;52.00;;;;;;5057868;28;20084;-64
2022/06/19 12:55:27;;;;;;;2.80;1.10;;;22.60;51.70;;;;;;5057140;28;20064;-63
2022/06/19 12:58:31;;;;;;;4.43;1.38;;;22.60;51.40;;;;;;5057291;28;20072;-63
2022/06/19 13:01:04;;;;;;;3.83;1.10;;;22.60;51.10;;;;;;4980578;28;20057;-63
2022/06/19 13:04:01;;;;;;;4.43;1.10;;;22.60;51.10;;;;;;4981457;28;20050;-63
2022/06/19 13:06:44;;;;;;;2.33;0.90;;;22.60;51.20;;;;;;5034354;28;20052;-62
2022/06/19 13:09:31;;;;;;;4.13;1.13;;;22.60;51.30;;;;;;5057174;28;20080;-62
2022/06/19 13:12:17;;;;;;;2.83;1.13;;;22.60;51.00;;;;;;5054819;28;20044;-63
2022/06/19 13:15:04;;;;;;;4.75;0.95;;;22.60;51.20;;;;;;5025705;28;20060;-63